Time;durP1;ratioP1;P1;durP2;ratioP2;P2;SDS_P1;SDS_P2;PMS_P1;PMS_P2;Temp;Humidity;BMP_temperature;BMP_pressure;BME280_temperature;BME280_humidity;BME280_pressure;Samples;Min_cycle;Max_cycle;Signal;HPM_P1;HPM_P2
2022/06/20 00:00:09;;;;;;;2.47;1.03;;;;;;;;;;4971085;28;20037;-84
2022/06/20 00:02:37;;;;;;;2.40;0.90;;;;;;;;;;4971139;28;20795;-82
2022/06/20 00:05:03;;;;;;;2.17;0.93;;;;;;;;;;4967648;28;20029;-84
2022/06/20 00:07:29;;;;;;;2.05;0.85;;;;;;;;;;4987402;28;20042;-83
2022/06/20 00:09:54;;;;;;;2.33;0.75;;;;;;;;;;4989796;28;20067;-84
2022/06/20 00:12:25;;;;;;;3.70;0.95;;;;;;;;;;4968384;28;20590;-83
2022/06/20 00:14:56;;;;;;;1.88;0.80;;;;;;;;;;4972971;28;20038;-83
2022/06/20 00:17:22;;;;;;;1.98;0.80;;;;;;;;;;4963540;28;20560;-84
2022/06/20 00:19:47;;;;;;;1.80;0.63;;;;;;;;;;4975354;28;20112;-83
2022/06/20 00:22:13;;;;;;;1.58;0.85;;;;;;;;;;4993052;28;20053;-83
2022/06/20 00:24:38;;;;;;;3.08;0.98;;;;;;;;;;4992330;28;20543;-83
2022/06/20 00:27:06;;;;;;;4.63;1.27;;;;;;;;;;4991492;28;20084;-83
2022/06/20 00:29:36;;;;;;;2.83;0.98;;;;;;;;;;5002007;28;20033;-83
2022/06/20 00:32:02;;;;;;;2.67;0.90;;;;;;;;;;4997076;28;20504;-83
2022/06/20 00:34:27;;;;;;;2.42;0.95;;;;;;;;;;4995829;28;20044;-83
2022/06/20 00:36:52;;;;;;;1.80;0.88;;;;;;;;;;5006168;28;20057;-83
2022/06/20 00:39:19;;;;;;;4.03;0.85;;;;;;;;;;4996394;28;20072;-83
2022/06/20 00:41:45;;;;;;;3.53;1.10;;;;;;;;;;4986686;28;20038;-83
2022/06/20 00:44:15;;;;;;;4.60;1.50;;;;;;;;;;4994541;28;20038;-83
2022/06/20 00:46:49;;;;;;;2.85;1.10;;;;;;;;;;4983776;28;20506;-83
2022/06/20 00:49:18;;;;;;;1.83;0.95;;;;;;;;;;4981508;28;20548;-83
2022/06/20 00:51:50;;;;;;;2.55;1.15;;;;;;;;;;4993171;28;20133;-83
2022/06/20 00:54:24;;;;;;;2.05;0.80;;;;;;;;;;5003794;28;20046;-82
2022/06/20 00:56:55;;;;;;;3.50;1.15;;;;;;;;;;4990300;28;20049;-83
2022/06/20 00:59:28;;;;;;;2.00;0.95;;;;;;;;;;5005592;28;20041;-84
2022/06/20 01:01:54;;;;;;;2.30;1.00;;;;;;;;;;5005243;28;20048;-83
2022/06/20 01:04:25;;;;;;;2.63;1.13;;;;;;;;;;4992388;28;20122;-84
2022/06/20 01:06:55;;;;;;;2.55;0.95;;;;;;;;;;5002299;28;20371;-83
2022/06/20 01:09:23;;;;;;;2.35;0.93;;;;;;;;;;4996327;28;20044;-83
2022/06/20 01:11:51;;;;;;;2.67;1.08;;;;;;;;;;4983672;28;20120;-84
2022/06/20 01:14:38;;;;;;;3.47;1.20;;;;;;;;;;5002210;28;20346;-83
2022/06/20 01:17:23;;;;;;;3.67;1.35;;;;;;;;;;4995523;28;20038;-83
2022/06/20 01:20:10;;;;;;;3.05;1.60;;;;;;;;;;5008081;28;20041;-84
2022/06/20 01:22:41;;;;;;;3.92;1.40;;;;;;;;;;4995494;28;20086;-84
2022/06/20 01:25:31;;;;;;;4.07;1.67;;;;;;;;;;5006739;28;20538;-83
2022/06/20 01:27:57;;;;;;;4.18;2.05;;;;;;;;;;5008299;28;20042;-83
2022/06/20 01:30:25;;;;;;;4.38;1.50;;;;;;;;;;5000420;28;20048;-83
2022/06/20 01:32:50;;;;;;;4.13;2.10;;;;;;;;;;5004327;28;20066;-84
2022/06/20 01:37:23;;;;;;;4.60;1.83;;;;;;;;;;5002964;28;20096;-83
2022/06/20 01:38:03;;;;;;;4.03;2.17;;;;;;;;;;5008514;28;20152;-83
2022/06/20 01:40:29;;;;;;;4.57;2.20;;;;;;;;;;4992596;28;20040;-83
2022/06/20 01:42:54;;;;;;;5.82;2.22;;;;;;;;;;4990104;28;20033;-83
2022/06/20 01:48:08;;;;;;;4.15;2.15;;;;;;;;;;5009722;28;20457;-83
2022/06/20 01:50:34;;;;;;;4.63;2.00;;;;;;;;;;4993059;28;20062;-83
2022/06/20 01:53:01;;;;;;;4.50;2.00;;;;;;;;;;4984907;28;20030;-83
2022/06/20 01:55:27;;;;;;;4.20;2.22;;;;;;;;;;4997188;28;20116;-83
2022/06/20 01:57:59;;;;;;;5.50;2.75;;;;;;;;;;5007409;28;20127;-83
2022/06/20 02:00:25;;;;;;;4.80;2.53;;;;;;;;;;5010575;28;20673;-84
2022/06/20 02:03:04;;;;;;;5.65;2.70;;;;;;;;;;5007165;28;20163;-83
2022/06/20 02:05:31;;;;;;;6.22;2.70;;;;;;;;;;5005423;28;20038;-83
2022/06/20 02:07:58;;;;;;;4.68;2.65;;;;;;;;;;5013483;28;20505;-83
2022/06/20 02:10:31;;;;;;;4.43;2.10;;;;;;;;;;5007810;28;20120;-84
2022/06/20 02:12:59;;;;;;;5.45;1.90;;;;;;;;;;5005801;28;20026;-83
2022/06/20 02:15:24;;;;;;;;;;;;;;;;;;5000798;28;20120;-82
2022/06/20 02:17:50;;;;;;;4.30;1.88;;;;;;;;;;4990419;28;20039;-82
2022/06/20 02:20:24;;;;;;;5.43;1.70;;;;;;;;;;5000446;28;20041;-83
2022/06/20 02:22:50;;;;;;;5.38;2.10;;;;;;;;;;5000579;28;20029;-84
2022/06/20 02:25:19;;;;;;;6.28;2.03;;;;;;;;;;4992440;28;20056;-83
2022/06/20 02:27:58;;;;;;;3.88;1.80;;;;;;;;;;5002488;28;20064;-83
2022/06/20 02:30:24;;;;;;;3.50;1.70;;;;;;;;;;5004530;28;20046;-83
2022/06/20 02:32:55;;;;;;;7.90;2.25;;;;;;;;;;5002977;28;20033;-84
2022/06/20 02:35:21;;;;;;;6.32;2.40;;;;;;;;;;5010581;28;20083;-84
2022/06/20 02:37:47;;;;;;;6.75;2.70;;;;;;;;;;4992671;28;20488;-84
2022/06/20 02:40:15;;;;;;;4.32;1.83;;;;;;;;;;4999816;28;20493;-83
2022/06/20 02:42:47;;;;;;;5.68;2.50;;;;;;;;;;5004058;28;20037;-83
2022/06/20 02:45:12;;;;;;;5.22;2.25;;;;;;;;;;5006507;28;20460;-84
2022/06/20 02:47:43;;;;;;;5.65;2.30;;;;;;;;;;5003010;28;20057;-84
2022/06/20 02:50:11;;;;;;;4.55;2.25;;;;;;;;;;4991469;28;20033;-83
2022/06/20 02:52:38;;;;;;;;;;;;;;;;;;5009449;28;20215;-83
2022/06/20 02:55:05;;;;;;;6.53;2.30;;;;;;;;;;4987861;28;19959;-83
2022/06/20 02:57:35;;;;;;;5.07;2.15;;;;;;;;;;4996484;28;20382;-83
2022/06/20 03:00:04;;;;;;;4.07;1.67;;;;;;;;;;5003387;28;20033;-83
2022/06/20 03:02:32;;;;;;;5.68;2.65;;;;;;;;;;4987967;28;20047;-83
2022/06/20 03:04:57;;;;;;;3.80;2.00;;;;;;;;;;4988867;28;20455;-83
2022/06/20 03:07:25;;;;;;;4.72;2.30;;;;;;;;;;4990896;28;20125;-82
2022/06/20 03:09:55;;;;;;;3.47;1.92;;;;;;;;;;5000467;28;20036;-82
2022/06/20 03:12:21;;;;;;;4.95;2.03;;;;;;;;;;5004286;28;20510;-82
2022/06/20 03:14:50;;;;;;;5.00;2.25;;;;;;;;;;4992708;28;20053;-83
2022/06/20 03:17:17;;;;;;;6.75;2.30;;;;;;;;;;5007427;28;20042;-82
2022/06/20 03:19:47;;;;;;;5.22;1.90;;;;;;;;;;4997066;28;20513;-82
2022/06/20 03:22:16;;;;;;;5.18;2.15;;;;;;;;;;5000410;28;20413;-83
2022/06/20 03:24:42;;;;;;;4.80;2.17;;;;;;;;;;4989019;28;20049;-81
2022/06/20 03:27:12;;;;;;;6.10;2.50;;;;;;;;;;5008689;28;20050;-82
2022/06/20 03:29:39;;;;;;;6.60;2.42;;;;;;;;;;4998071;28;20405;-83
2022/06/20 03:32:05;;;;;;;6.50;1.98;;;;;;;;;;5001231;28;20030;-83
2022/06/20 03:34:30;;;;;;;4.50;2.10;;;;;;;;;;4997763;28;20033;-83
2022/06/20 03:36:56;;;;;;;3.78;1.83;;;;;;;;;;4985083;28;20033;-83
2022/06/20 03:39:22;;;;;;;3.35;1.70;;;;;;;;;;5002448;28;20037;-83
2022/06/20 03:41:49;;;;;;;3.60;2.05;;;;;;;;;;4984218;28;20485;-82
2022/06/20 03:44:17;;;;;;;5.05;1.98;;;;;;;;;;4993002;28;20033;-82
2022/06/20 03:46:56;;;;;;;;;;;;;;;;;;5030519;28;20041;-81
2022/06/20 03:49:35;;;;;;;4.22;2.20;;;;;;;;;;4992026;28;20292;-83
2022/06/20 03:52:20;;;;;;;3.35;1.48;;;;;;;;;;5016718;28;20045;-83
2022/06/20 03:54:59;;;;;;;4.25;1.83;;;;;;;;;;5010307;28;20034;-81
2022/06/20 03:57:30;;;;;;;2.85;1.55;;;;;;;;;;5001131;28;20036;-82
2022/06/20 04:00:08;;;;;;;3.30;1.60;;;;;;;;;;4997066;28;20086;-83
2022/06/20 04:02:45;;;;;;;4.18;1.77;;;;;;;;;;5004906;28;20091;-82
2022/06/20 04:05:50;;;;;;;4.22;1.60;;;;;;;;;;5002953;28;20030;-83
2022/06/20 04:08:22;;;;;;;4.95;1.73;;;;;;;;;;4984201;28;20045;-83
2022/06/20 04:11:03;;;;;;;3.15;1.30;;;;;;;;;;4994484;28;20091;-84
2022/06/20 04:13:37;;;;;;;4.30;1.48;;;;;;;;;;4986252;28;20035;-83
2022/06/20 04:16:23;;;;;;;3.75;1.40;;;;;;;;;;5006672;28;20029;-83
2022/06/20 04:19:18;;;;;;;6.13;1.50;;;;;;;;;;4986988;28;20370;-82
2022/06/20 04:22:04;;;;;;;6.10;1.70;;;;;;;;;;5019092;28;20041;-83
2022/06/20 04:24:29;;;;;;;3.50;1.55;;;;;;;;;;5001686;28;20077;-82
2022/06/20 04:26:57;;;;;;;4.00;1.83;;;;;;;;;;5022513;28;21067;-83
2022/06/20 04:29:34;;;;;;;5.00;1.65;;;;;;;;;;5015784;28;20068;-83
2022/06/20 04:32:04;;;;;;;3.35;1.40;;;;;;;;;;5005132;28;20034;-83
2022/06/20 04:34:39;;;;;;;4.93;1.65;;;;;;;;;;4986319;28;20132;-82
2022/06/20 04:37:04;;;;;;;15.95;1.85;;;;;;;;;;4996093;28;20092;-83
2022/06/20 04:39:59;;;;;;;4.57;1.63;;;;;;;;;;5007800;28;20034;-82
2022/06/20 04:42:31;;;;;;;3.63;1.50;;;;;;;;;;4991783;28;20102;-84
2022/06/20 04:45:03;;;;;;;3.28;1.67;;;;;;;;;;4989576;28;20036;-84
2022/06/20 04:47:47;;;;;;;3.03;1.45;;;;;;;;;;4998971;28;20077;-83
2022/06/20 04:50:19;;;;;;;3.15;1.42;;;;;;;;;;5000156;28;20041;-85
2022/06/20 04:52:46;;;;;;;3.10;1.40;;;;;;;;;;4998774;28;20029;-86
2022/06/20 04:55:17;;;;;;;3.70;1.55;;;;;;;;;;4997118;28;20049;-86
2022/06/20 04:57:42;;;;;;;4.55;1.85;;;;;;;;;;4991530;28;20038;-87
2022/06/20 05:00:16;;;;;;;4.05;1.50;;;;;;;;;;5000444;28;20037;-86
2022/06/20 05:02:41;;;;;;;4.03;1.35;;;;;;;;;;4993051;28;20413;-85
2022/06/20 05:05:13;;;;;;;2.97;1.27;;;;;;;;;;4991652;28;20025;-85
2022/06/20 05:07:39;;;;;;;4.13;1.73;;;;;;;;;;5000105;23;20064;-85
2022/06/20 05:10:11;;;;;;;5.35;1.60;;;;;;;;;;4999125;28;20548;-86
2022/06/20 05:13:00;;;;;;;5.20;2.30;;;;;;;;;;4994478;28;20576;-86
2022/06/20 05:15:54;;;;;;;4.45;2.30;;;;;;;;;;4968038;28;20113;-85
2022/06/20 05:21:39;;;;;;;3.67;1.73;;;;;;;;;;4939269;28;20045;-84
2022/06/20 05:24:25;;;;;;;5.18;1.77;;;;;;;;;;4988140;28;20038;-85
2022/06/20 05:26:52;;;;;;;4.50;1.85;;;;;;;;;;4989015;28;20037;-84
2022/06/20 05:29:29;;;;;;;6.17;2.23;;;;;;;;;;5010553;28;20037;-87
2022/06/20 05:31:56;;;;;;;4.30;2.13;;;;;;;;;;4994407;28;20340;-85
2022/06/20 05:34:23;;;;;;;6.15;2.35;;;;;;;;;;4994770;28;20405;-93
2022/06/20 05:37:04;;;;;;;4.65;2.60;;;;;;;;;;5026448;28;20037;-91
2022/06/20 05:39:33;;;;;;;5.38;2.33;;;;;;;;;;5013067;28;20103;-90
2022/06/20 05:41:59;;;;;;;3.67;2.03;;;;;;;;;;4997737;28;20041;-91
2022/06/20 05:44:24;;;;;;;5.97;2.42;;;;;;;;;;5012092;28;20459;-88
2022/06/20 05:47:19;;;;;;;4.97;2.15;;;;;;;;;;4996236;28;20057;-92
2022/06/20 05:50:27;;;;;;;7.38;3.15;;;;;;;;;;4990166;28;20512;-92
2022/06/20 05:52:54;;;;;;;6.13;3.47;;;;;;;;;;4954890;28;20443;-86
2022/06/20 05:55:22;;;;;;;7.68;3.13;;;;;;;;;;4992016;28;20393;-81
2022/06/20 05:57:49;;;;;;;4.88;2.60;;;;;;;;;;5002163;28;20392;-81
2022/06/20 06:00:20;;;;;;;5.50;2.60;;;;;;;;;;4993215;28;20093;-81
2022/06/20 06:03:29;;;;;;;8.25;2.88;;;;;;;;;;5009615;28;20067;-81
2022/06/20 06:06:00;;;;;;;5.55;2.78;;;;;;;;;;4910220;29;20385;-82
2022/06/20 06:08:36;;;;;;;6.28;3.00;;;;;;;;;;4996316;28;20049;-82
2022/06/20 06:11:20;;;;;;;5.90;2.50;;;;;;;;;;4992165;28;20033;-82
2022/06/20 06:14:04;;;;;;;5.88;2.88;;;;;;;;;;4992706;28;25276;-82
2022/06/20 06:16:46;;;;;;;5.43;2.63;;;;;;;;;;5008920;28;20037;-82
2022/06/20 06:19:37;;;;;;;4.90;2.55;;;;;;;;;;5010105;28;20037;-82
2022/06/20 06:22:26;;;;;;;5.85;2.60;;;;;;;;;;4982276;28;20522;-81
2022/06/20 06:24:55;;;;;;;5.10;2.78;;;;;;;;;;4995049;28;20037;-82
2022/06/20 06:27:24;;;;;;;6.20;2.40;;;;;;;;;;4996170;28;20103;-83
2022/06/20 06:29:54;;;;;;;6.65;2.90;;;;;;;;;;4992223;28;20030;-81
2022/06/20 06:32:43;;;;;;;5.82;2.95;;;;;;;;;;5008494;28;20037;-80
2022/06/20 06:35:08;;;;;;;5.80;3.03;;;;;;;;;;5009560;28;20567;-80
2022/06/20 06:37:38;;;;;;;6.20;2.88;;;;;;;;;;5026301;28;20041;-81
2022/06/20 06:40:18;;;;;;;6.97;3.38;;;;;;;;;;5009191;28;20670;-80
2022/06/20 06:42:44;;;;;;;5.10;2.78;;;;;;;;;;5008864;28;20041;-81
2022/06/20 06:45:21;;;;;;;6.85;3.03;;;;;;;;;;4993410;28;20037;-81
2022/06/20 06:47:51;;;;;;;5.18;3.10;;;;;;;;;;5007144;28;20037;-80
2022/06/20 06:50:31;;;;;;;6.80;2.72;;;;;;;;;;4985836;28;20049;-80
2022/06/20 06:53:11;;;;;;;7.20;3.05;;;;;;;;;;5008762;28;20034;-81
2022/06/20 06:55:40;;;;;;;6.35;2.67;;;;;;;;;;5007551;28;20033;-81
2022/06/20 06:58:11;;;;;;;5.05;2.47;;;;;;;;;;5008783;28;20037;-81
2022/06/20 07:00:40;;;;;;;5.93;2.85;;;;;;;;;;5007974;28;20053;-81
2022/06/20 07:03:10;;;;;;;5.22;2.85;;;;;;;;;;4993460;28;20068;-81
2022/06/20 07:05:39;;;;;;;6.38;3.03;;;;;;;;;;5025896;28;20044;-81
2022/06/20 07:08:16;;;;;;;5.50;2.40;;;;;;;;;;4992208;28;20049;-81
2022/06/20 07:10:55;;;;;;;4.97;3.08;;;;;;;;;;5006425;28;20133;-82
2022/06/20 07:13:41;;;;;;;5.57;2.50;;;;;;;;;;5025319;28;20111;-83
2022/06/20 07:16:40;;;;;;;4.27;2.17;;;;;;;;;;5007023;28;20033;-82
2022/06/20 07:19:07;;;;;;;4.82;2.60;;;;;;;;;;5007428;28;20413;-82
2022/06/20 07:21:33;;;;;;;4.28;2.35;;;;;;;;;;4993524;28;20481;-81
2022/06/20 07:24:05;;;;;;;5.75;2.90;;;;;;;;;;5008482;28;20425;-83
2022/06/20 07:26:37;;;;;;;5.78;2.40;;;;;;;;;;4998078;28;20076;-82
2022/06/20 07:29:15;;;;;;;5.40;2.58;;;;;;;;;;4991872;28;20088;-82
2022/06/20 07:31:42;;;;;;;4.65;2.40;;;;;;;;;;4989315;28;20030;-82
2022/06/20 07:34:31;;;;;;;4.63;2.60;;;;;;;;;;5007483;28;20037;-81
2022/06/20 07:36:59;;;;;;;5.53;2.88;;;;;;;;;;5004963;28;20077;-81
2022/06/20 07:39:25;;;;;;;5.38;2.65;;;;;;;;;;5026193;28;20038;-81
2022/06/20 07:42:14;;;;;;;4.90;2.63;;;;;;;;;;5008069;28;20187;-81
2022/06/20 07:44:48;;;;;;;6.13;2.70;;;;;;;;;;4990766;28;20038;-82
2022/06/20 07:47:21;;;;;;;4.57;2.17;;;;;;;;;;4981662;28;20033;-81
2022/06/20 07:49:53;;;;;;;4.78;2.78;;;;;;;;;;5001727;28;20424;-81
2022/06/20 07:52:27;;;;;;;5.88;3.10;;;;;;;;;;4990449;28;20030;-83
2022/06/20 07:54:56;;;;;;;6.22;3.10;;;;;;;;;;5007784;28;20068;-83
2022/06/20 07:57:44;;;;;;;4.65;2.88;;;;;;;;;;4990110;28;20033;-81
2022/06/20 08:00:26;;;;;;;5.65;3.15;;;;;;;;;;4944951;28;20507;-86
2022/06/20 08:02:53;;;;;;;5.97;3.00;;;;;;;;;;4930104;28;20645;-86
2022/06/20 08:05:35;;;;;;;6.40;3.20;;;;;;;;;;4930618;28;20046;-87
2022/06/20 08:08:27;;;;;;;5.03;2.75;;;;;;;;;;4939186;28;20039;-86
2022/06/20 08:11:08;;;;;;;4.47;3.05;;;;;;;;;;4944830;28;20050;-84
2022/06/20 08:13:49;;;;;;;5.10;3.25;;;;;;;;;;4945468;28;20114;-86
2022/06/20 08:16:27;;;;;;;5.50;2.97;;;;;;;;;;4929950;28;20562;-86
2022/06/20 08:18:53;;;;;;;5.70;3.15;;;;;;;;;;4937897;28;20035;-87
2022/06/20 08:21:26;;;;;;;6.13;3.63;;;;;;;;;;4913332;28;20043;-87
2022/06/20 08:24:03;;;;;;;5.75;3.42;;;;;;;;;;4915330;29;20035;-88
2022/06/20 08:26:45;;;;;;;5.37;3.23;;;;;;;;;;4923732;29;20518;-86
2022/06/20 08:29:14;;;;;;;7.50;3.75;;;;;;;;;;4914861;28;20039;-87
2022/06/20 08:32:05;;;;;;;7.50;3.53;;;;;;;;;;4914511;28;20563;-87
2022/06/20 08:34:45;;;;;;;5.28;3.22;;;;;;;;;;4914076;28;20077;-85
2022/06/20 08:37:23;;;;;;;5.40;3.03;;;;;;;;;;4966256;28;20037;-87
2022/06/20 08:40:07;;;;;;;6.20;3.63;;;;;;;;;;4992595;28;20124;-86
2022/06/20 08:43:04;;;;;;;5.47;3.20;;;;;;;;;;4989348;28;20041;-86
2022/06/20 08:45:34;;;;;;;5.30;3.38;;;;;;;;;;4982781;28;20045;-87
2022/06/20 08:48:24;;;;;;;7.70;3.88;;;;;;;;;;5007196;28;20037;-86
2022/06/20 08:51:01;;;;;;;7.15;3.67;;;;;;;;;;5023913;28;20057;-86
2022/06/20 08:53:44;;;;;;;6.75;3.50;;;;;;;;;;5010124;28;20108;-85
2022/06/20 08:56:16;;;;;;;6.30;3.70;;;;;;;;;;5005630;28;20038;-84
2022/06/20 08:58:55;;;;;;;5.72;3.25;;;;;;;;;;5006510;28;20080;-85
2022/06/20 09:01:44;;;;;;;4.95;3.28;;;;;;;;;;5005588;28;20037;-86
2022/06/20 09:04:31;;;;;;;6.10;3.05;;;;;;;;;;4991367;28;20045;-84
2022/06/20 09:07:07;;;;;;;5.28;2.90;;;;;;;;;;5023487;28;20057;-84
2022/06/20 09:10:07;;;;;;;4.88;2.75;;;;;;;;;;5024486;28;20049;-84
2022/06/20 09:12:32;;;;;;;4.68;2.50;;;;;;;;;;5020468;28;20033;-85
2022/06/20 09:15:07;;;;;;;4.63;2.53;;;;;;;;;;5005887;28;20081;-84
2022/06/20 09:17:32;;;;;;;5.32;2.53;;;;;;;;;;5005823;28;20037;-86
2022/06/20 09:20:00;;;;;;;4.53;2.20;;;;;;;;;;5006850;28;20523;-87
2022/06/20 09:22:30;;;;;;;4.47;2.85;;;;;;;;;;5023588;28;20033;-85
2022/06/20 09:25:17;;;;;;;4.22;2.40;;;;;;;;;;5006772;28;20041;-85
2022/06/20 09:27:54;;;;;;;5.85;2.78;;;;;;;;;;5023167;28;20040;-85
2022/06/20 09:30:32;;;;;;;5.07;2.80;;;;;;;;;;5006207;28;20120;-84
2022/06/20 09:33:21;;;;;;;6.85;3.05;;;;;;;;;;4982318;28;20084;-85
2022/06/20 09:36:04;;;;;;;4.03;2.28;;;;;;;;;;5005219;28;20762;-86
2022/06/20 09:38:47;;;;;;;5.22;2.63;;;;;;;;;;4994479;28;20034;-84
2022/06/20 09:41:36;;;;;;;4.97;2.38;;;;;;;;;;4997972;28;20556;-84
2022/06/20 09:44:04;;;;;;;4.38;2.50;;;;;;;;;;4987207;28;20040;-85
2022/06/20 09:46:37;;;;;;;4.95;2.53;;;;;;;;;;5026733;28;20046;-84
2022/06/20 09:49:23;;;;;;;4.13;2.35;;;;;;;;;;5027424;28;20552;-85
2022/06/20 09:51:53;;;;;;;5.78;2.63;;;;;;;;;;4992631;28;20451;-85
2022/06/20 09:54:43;;;;;;;4.80;2.55;;;;;;;;;;5010560;28;20044;-85
2022/06/20 09:57:18;;;;;;;5.20;2.50;;;;;;;;;;5009217;28;20099;-84
2022/06/20 10:00:03;;;;;;;5.10;2.47;;;;;;;;;;5010261;28;20065;-83
2022/06/20 10:02:34;;;;;;;10.75;3.00;;;;;;;;;;5007750;28;20132;-84
2022/06/20 10:05:14;;;;;;;4.63;2.60;;;;;;;;;;5010238;28;20041;-85
2022/06/20 10:07:51;;;;;;;4.63;2.80;;;;;;;;;;5008296;28;20075;-84
2022/06/20 10:10:27;;;;;;;5.88;2.90;;;;;;;;;;4982821;28;20045;-86
2022/06/20 10:13:02;;;;;;;7.43;2.83;;;;;;;;;;5010625;28;20050;-84
2022/06/20 10:15:50;;;;;;;3.85;2.28;;;;;;;;;;4999084;28;20045;-84
2022/06/20 10:18:21;;;;;;;;;;;;;;;;;;5027715;28;20103;-85
2022/06/20 10:21:11;;;;;;;5.10;3.00;;;;;;;;;;5008090;28;19921;-86
2022/06/20 10:23:57;;;;;;;4.97;3.17;;;;;;;;;;4984310;28;20374;-84
2022/06/20 10:26:29;;;;;;;5.43;2.60;;;;;;;;;;5008478;28;20488;-83
2022/06/20 10:29:13;;;;;;;4.35;2.22;;;;;;;;;;5010153;28;20083;-86
2022/06/20 10:31:44;;;;;;;4.88;2.90;;;;;;;;;;5026099;28;20500;-87
2022/06/20 10:34:24;;;;;;;4.78;2.50;;;;;;;;;;4999400;28;20083;-86
2022/06/20 10:36:52;;;;;;;4.25;2.42;;;;;;;;;;5008036;28;20025;-86
2022/06/20 10:39:23;;;;;;;6.13;2.58;;;;;;;;;;5008846;28;20049;-86
2022/06/20 10:42:04;;;;;;;4.72;2.60;;;;;;;;;;5025843;28;20515;-86
2022/06/20 10:44:39;;;;;;;6.22;2.70;;;;;;;;;;4991733;28;20061;-86
2022/06/20 10:47:10;;;;;;;4.30;2.40;;;;;;;;;;5008500;28;20109;-87
2022/06/20 10:49:53;;;;;;;4.57;2.85;;;;;;;;;;5004008;28;20144;-85
2022/06/20 10:52:32;;;;;;;4.88;2.28;;;;;;;;;;5008665;28;20044;-87
2022/06/20 10:55:00;;;;;;;3.60;2.10;;;;;;;;;;5009029;28;20446;-86
2022/06/20 10:57:57;;;;;;;5.55;2.78;;;;;;;;;;5009065;28;20072;-84
2022/06/20 11:00:25;;;;;;;4.10;2.38;;;;;;;;;;4991590;28;20042;-85
2022/06/20 11:03:14;;;;;;;5.05;2.35;;;;;;;;;;4992497;28;20044;-85
2022/06/20 11:06:07;;;;;;;4.97;2.42;;;;;;;;;;5006965;28;20065;-86
2022/06/20 11:09:02;;;;;;;5.10;2.65;;;;;;;;;;5025912;28;20118;-84
2022/06/20 11:11:31;;;;;;;4.10;2.20;;;;;;;;;;4989014;28;20034;-83
2022/06/20 11:14:06;;;;;;;3.53;1.98;;;;;;;;;;5008506;28;20124;-84
2022/06/20 11:16:46;;;;;;;5.32;2.40;;;;;;;;;;5025616;28;20037;-85
2022/06/20 11:19:20;;;;;;;3.72;1.90;;;;;;;;;;5008635;28;20619;-86
2022/06/20 11:21:56;;;;;;;5.72;2.20;;;;;;;;;;4992480;28;20104;-87
2022/06/20 11:24:51;;;;;;;4.95;2.10;;;;;;;;;;5023862;28;20033;-85
2022/06/20 11:27:22;;;;;;;4.70;1.92;;;;;;;;;;4995588;28;20048;-85
2022/06/20 11:30:14;;;;;;;3.50;1.95;;;;;;;;;;5006697;28;20162;-85
2022/06/20 11:32:50;;;;;;;3.83;2.03;;;;;;;;;;5025054;28;20041;-86
2022/06/20 11:35:40;;;;;;;3.88;2.00;;;;;;;;;;4990670;28;20397;-84
2022/06/20 11:38:11;;;;;;;3.28;1.75;;;;;;;;;;5023757;28;20033;-86
2022/06/20 11:40:51;;;;;;;4.15;2.28;;;;;;;;;;5007296;28;20500;-86
2022/06/20 11:43:45;;;;;;;5.20;2.45;;;;;;;;;;5008344;28;23403;-86
2022/06/20 11:46:35;;;;;;;3.78;1.77;;;;;;;;;;4988205;28;20467;-85
2022/06/20 11:49:21;;;;;;;4.35;2.25;;;;;;;;;;4991287;28;20033;-86
2022/06/20 11:52:08;;;;;;;2.65;1.50;;;;;;;;;;5025178;28;20507;-93
2022/06/20 11:54:45;;;;;;;2.97;1.60;;;;;;;;;;4971263;28;20034;-93
2022/06/20 11:57:51;;;;;;;3.42;1.67;;;;;;;;;;4994399;28;20120;-92
2022/06/20 12:00:23;;;;;;;4.22;1.70;;;;;;;;;;4979046;28;20045;-92
2022/06/20 12:03:12;;;;;;;3.35;1.40;;;;;;;;;;4961568;28;20492;-94
2022/06/20 12:05:43;;;;;;;4.03;1.50;;;;;;;;;;4979531;28;20057;-93
2022/06/20 12:08:16;;;;;;;2.60;1.40;;;;;;;;;;4987372;28;20049;-95
2022/06/20 12:10:55;;;;;;;3.00;1.40;;;;;;;;;;5005876;28;20120;-92
2022/06/20 12:13:51;;;;;;;2.80;1.55;;;;;;;;;;5008535;28;20451;-91
2022/06/20 12:16:38;;;;;;;3.40;1.38;;;;;;;;;;4956490;28;20053;-94
2022/06/20 12:25:29;;;;;;;1.95;0.90;;;;;;;;;;4979252;28;20140;-93
2022/06/20 12:28:00;;;;;;;3.38;1.58;;;;;;;;;;4974802;28;20045;-93
2022/06/20 12:30:26;;;;;;;2.63;1.08;;;;;;;;;;4966270;28;20803;-94
2022/06/20 12:32:54;;;;;;;2.90;1.13;;;;;;;;;;4976565;28;20040;-94
2022/06/20 12:35:34;;;;;;;2.88;1.15;;;;;;;;;;4974455;28;20048;-92
2022/06/20 12:38:09;;;;;;;3.80;1.05;;;;;;;;;;4967865;28;20571;-94
2022/06/20 12:40:58;;;;;;;3.65;1.15;;;;;;;;;;5014435;28;20095;-95
2022/06/20 12:43:55;;;;;;;;;;;;;;;;;;;;;
2022/06/20 12:47:15;;;;;;;3.75;1.38;;;;;;;;;;4953612;28;20621;-94
2022/06/20 12:50:10;;;;;;;2.15;1.05;;;;;;;;;;4955928;28;20044;-88
2022/06/20 12:53:17;;;;;;;2.58;1.00;;;;;;;;;;4972153;28;20432;-90
2022/06/20 12:56:07;;;;;;;2.95;1.40;;;;;;;;;;4970757;28;20041;-91
2022/06/20 12:58:56;;;;;;;2.95;1.27;;;;;;;;;;5006871;28;20025;-90
2022/06/20 13:01:34;;;;;;;2.45;1.00;;;;;;;;;;5007099;28;20044;-91
2022/06/20 13:04:18;;;;;;;1.75;0.80;;;;;;;;;;4990085;28;20041;-92
2022/06/20 13:06:49;;;;;;;2.20;0.80;;;;;;;;;;5007079;28;20033;-92
2022/06/20 13:09:26;;;;;;;2.03;0.80;;;;;;;;;;5024702;28;20125;-92
2022/06/20 13:12:09;;;;;;;1.45;0.60;;;;;;;;;;5026088;28;20033;-91
2022/06/20 13:14:40;;;;;;;1.42;0.70;;;;;;;;;;4983342;28;20112;-91
2022/06/20 13:17:28;;;;;;;2.17;0.70;;;;;;;;;;5009441;28;20045;-90
2022/06/20 13:20:04;;;;;;;1.65;0.70;;;;;;;;;;4992560;28;20573;-89
2022/06/20 13:23:14;;;;;;;2.78;1.10;;;;;;;;;;5010008;28;20045;-90
2022/06/20 13:25:58;;;;;;;1.15;0.50;;;;;;;;;;5005818;28;20052;-90
2022/06/20 13:28:37;;;;;;;1.65;0.70;;;;;;;;;;4971957;28;20124;-89
2022/06/20 13:31:35;;;;;;;1.33;0.70;;;;;;;;;;4992038;28;20489;-91
2022/06/20 13:34:20;;;;;;;2.15;0.55;;;;;;;;;;4973196;28;20041;-91
2022/06/20 13:36:57;;;;;;;1.73;0.68;;;;;;;;;;4983134;28;20053;-93
2022/06/20 13:39:42;;;;;;;1.40;0.57;;;;;;;;;;4993733;28;20040;-90
2022/06/20 13:42:28;;;;;;;1.70;0.75;;;;;;;;;;5009374;28;20509;-91
2022/06/20 13:45:18;;;;;;;1.60;0.63;;;;;;;;;;4993913;28;20405;-91
2022/06/20 13:48:11;;;;;;;2.45;0.98;;;;;;;;;;5007998;28;20510;-91
2022/06/20 13:50:45;;;;;;;2.13;0.90;;;;;;;;;;5008613;28;20044;-90
2022/06/20 13:53:16;;;;;;;1.73;0.73;;;;;;;;;;5011565;28;20033;-86
2022/06/20 13:55:51;;;;;;;3.00;1.05;;;;;;;;;;4992957;28;20485;-85
2022/06/20 13:58:25;;;;;;;1.80;0.82;;;;;;;;;;5027595;28;20045;-87
2022/06/20 14:01:10;;;;;;;2.75;1.10;;;;;;;;;;5007962;28;20103;-85
2022/06/20 14:03:37;;;;;;;2.05;1.02;;;;;;;;;;5009433;28;20413;-85
2022/06/20 14:06:12;;;;;;;2.45;1.13;;;;;;;;;;5008991;28;20041;-85
2022/06/20 14:08:38;;;;;;;2.80;1.30;;;;;;;;;;4981753;28;20065;-85
2022/06/20 14:11:07;;;;;;;2.53;1.23;;;;;;;;;;4988739;28;20052;-84
2022/06/20 14:13:38;;;;;;;3.17;1.55;;;;;;;;;;4992287;28;20113;-85
2022/06/20 14:16:25;;;;;;;2.70;1.35;;;;;;;;;;4984837;28;20116;-84
2022/06/20 14:19:16;;;;;;;2.58;1.10;;;;;;;;;;5008455;28;20535;-85
2022/06/20 14:22:04;;;;;;;3.15;1.60;;;;;;;;;;4992659;28;20041;-86
2022/06/20 14:24:32;;;;;;;5.88;1.85;;;;;;;;;;4945936;29;20705;-87
2022/06/20 14:26:57;;;;;;;;;;;;;;;;;;4915634;29;20035;-84
2022/06/20 14:29:24;;;;;;;3.77;1.90;;;;;;;;;;4930658;29;19990;-85
2022/06/20 14:31:55;;;;;;;4.80;2.20;;;;;;;;;;4936860;29;20043;-86
2022/06/20 14:34:25;;;;;;;3.05;1.73;;;;;;;;;;4929939;29;20406;-86
2022/06/20 14:37:12;;;;;;;4.10;2.00;;;;;;;;;;4929587;29;20063;-86
2022/06/20 14:39:51;;;;;;;;;;;;;;;;;;4930698;29;20277;-86
2022/06/20 14:42:21;;;;;;;4.25;1.90;;;;;;;;;;4914678;29;19924;-86
2022/06/20 14:44:52;;;;;;;3.33;1.95;;;;;;;;;;4929831;29;20043;-87
2022/06/20 14:47:36;;;;;;;4.05;2.10;;;;;;;;;;4945930;29;20059;-85
2022/06/20 14:50:20;;;;;;;3.83;1.92;;;;;;;;;;4930147;29;20039;-85
2022/06/20 14:52:57;;;;;;;3.67;2.05;;;;;;;;;;4908288;29;20041;-85
2022/06/20 14:55:41;;;;;;;3.47;1.67;;;;;;;;;;4944292;29;20038;-86
2022/06/20 14:58:09;;;;;;;3.17;1.83;;;;;;;;;;4929997;29;20118;-86
2022/06/20 15:00:44;;;;;;;3.65;2.03;;;;;;;;;;4954045;28;20058;-85
2022/06/20 15:03:43;;;;;;;6.68;1.70;;;;;;;;;;4993223;28;20036;-85
2022/06/20 15:06:14;;;;;;;3.38;1.60;;;;;;;;;;4994806;28;20404;-84
2022/06/20 15:09:32;;;;;;;3.80;2.10;;;;;;;;;;5019438;28;20554;-85
2022/06/20 15:12:17;;;;;;;3.67;1.70;;;;;;;;;;5005747;28;20037;-83
2022/06/20 15:14:57;;;;;;;3.50;1.60;;;;;;;;;;5025896;28;20037;-85
2022/06/20 15:17:27;;;;;;;3.05;1.42;;;;;;;;;;5008637;28;20034;-87
2022/06/20 15:20:13;;;;;;;4.45;1.92;;;;;;;;;;4992211;28;20049;-85
2022/06/20 15:22:55;;;;;;;2.83;1.60;;;;;;;;;;4999443;28;20112;-88
2022/06/20 15:25:56;;;;;;;3.05;1.48;;;;;;;;;;4971384;28;20117;-88
2022/06/20 15:28:32;;;;;;;4.13;1.70;;;;;;;;;;5002543;28;20038;-89
2022/06/20 15:30:57;;;;;;;3.70;1.83;;;;;;;;;;5005473;28;20892;-88
2022/06/20 15:33:29;;;;;;;3.72;1.73;;;;;;;;;;5010274;28;20061;-88
2022/06/20 15:36:32;;;;;;;3.97;1.73;;;;;;;;;;5025364;28;20489;-87
2022/06/20 15:39:21;;;;;;;3.63;1.80;;;;;;;;;;5009032;28;20041;-89
2022/06/20 15:44:55;;;;;;;3.97;1.60;;;;;;;;;;4972560;28;20054;-87
2022/06/20 15:47:41;;;;;;;3.33;1.70;;;;;;;;;;4936948;28;20058;-90
2022/06/20 15:50:12;;;;;;;3.53;1.75;;;;;;;;;;5005686;28;20129;-88
2022/06/20 15:52:37;;;;;;;4.47;1.85;;;;;;;;;;5008252;28;20045;-85
2022/06/20 15:55:30;;;;;;;3.97;1.60;;;;;;;;;;5026171;28;20033;-83